createdAt,value
2023-02-16T00:02:01.527Z,61.34
2023-02-16T00:05:32.724Z,61.46
2023-02-16T00:08:34.574Z,61.55
2023-02-16T00:11:55.411Z,61.53
2023-02-16T00:14:57.789Z,61.62
2023-02-16T00:18:02.172Z,61.73
2023-02-16T00:21:04.223Z,61.75
2023-02-16T00:24:06.138Z,61.59
2023-02-16T00:27:13.378Z,61.92
2023-02-16T00:30:18.148Z,61.65
2023-02-16T00:33:21.168Z,61.72
2023-02-16T00:36:23.331Z,61.77
2023-02-16T00:39:25.568Z,61.76
2023-02-16T00:42:30.783Z,61.65
2023-02-16T00:45:37.597Z,61.79
2023-02-16T00:48:39.419Z,61.72
2023-02-16T00:51:42.549Z,61.66
2023-02-16T00:54:44.384Z,62.03
2023-02-16T00:57:56.739Z,61.93
2023-02-16T01:01:05.842Z,62.07
2023-02-16T01:04:11.934Z,62.02
2023-02-16T01:07:36.564Z,61.87
2023-02-16T01:10:58.005Z,61.94
2023-02-16T01:13:59.952Z,61.90
2023-02-16T01:17:01.830Z,61.94
2023-02-16T01:20:13.347Z,61.97
2023-02-16T01:23:15.291Z,62.06
2023-02-16T01:26:19.396Z,61.95
2023-02-16T01:29:21.615Z,62.07
2023-02-16T01:32:24.832Z,61.89
2023-02-16T01:35:32.592Z,62.30
2023-02-16T01:38:34.531Z,62.15
2023-02-16T01:41:48.634Z,62.05
2023-02-16T01:45:01.228Z,62.26
2023-02-16T01:48:06.386Z,62.36
2023-02-16T01:51:18.265Z,62.29
2023-02-16T01:54:30.585Z,62.42
2023-02-16T01:57:48.817Z,62.40
2023-02-16T02:00:51.640Z,62.30
2023-02-16T02:04:12.245Z,62.57
2023-02-16T02:07:23.267Z,62.37
2023-02-16T02:10:40.946Z,62.60
2023-02-16T02:13:51.930Z,62.46
2023-02-16T02:17:04.584Z,62.41
2023-02-16T02:20:48.988Z,62.33
2023-02-16T02:23:57.064Z,62.34
2023-02-16T02:27:24.316Z,62.42
2023-02-16T02:30:32.370Z,62.43
2023-02-16T02:33:59.367Z,62.15
2023-02-16T02:37:15.606Z,62.45
2023-02-16T02:40:36.158Z,62.15
2023-02-16T02:43:45.390Z,62.40
2023-02-16T02:46:48.035Z,62.30
2023-02-16T02:49:52.764Z,62.29
2023-02-16T02:52:57.304Z,62.23
2023-02-16T02:56:20.676Z,62.30
2023-02-16T02:59:46.292Z,62.32
2023-02-16T03:02:52.889Z,62.31
2023-02-16T03:05:56.694Z,62.13
2023-02-16T03:09:08.068Z,62.61
2023-02-16T03:12:30.781Z,62.25
2023-02-16T03:15:34.197Z,62.25
2023-02-16T03:18:56.944Z,62.38
2023-02-16T03:22:18.244Z,62.48
2023-02-16T03:25:42.006Z,62.32
2023-02-16T03:29:03.741Z,62.36
2023-02-16T03:32:06.139Z,62.56
2023-02-16T03:35:08.742Z,62.56
2023-02-16T03:38:10.664Z,62.45
2023-02-16T03:41:12.569Z,62.71
2023-02-16T03:44:15.117Z,62.74
2023-02-16T03:47:17.221Z,62.82
2023-02-16T03:50:19.273Z,62.63
2023-02-16T03:53:21.264Z,62.87
2023-02-16T03:56:23.204Z,62.78
2023-02-16T03:59:25.122Z,62.70
2023-02-16T04:02:28.096Z,62.64
2023-02-16T04:05:30.092Z,62.68
2023-02-16T04:08:32.006Z,62.93
2023-02-16T04:11:52.365Z,63.02
2023-02-16T04:14:54.176Z,62.98
2023-02-16T04:17:56.494Z,62.92
2023-02-16T04:20:58.340Z,62.84
2023-02-16T04:24:00.204Z,62.66
2023-02-16T04:27:01.991Z,62.99
2023-02-16T04:30:06.276Z,63.16
2023-02-16T04:33:08.119Z,63.14
2023-02-16T04:36:10.071Z,62.96
2023-02-16T04:39:11.992Z,62.96
2023-02-16T04:42:13.784Z,62.98
2023-02-16T04:45:15.754Z,63.05
2023-02-16T04:48:17.590Z,63.25
2023-02-16T04:51:19.467Z,63.09
2023-02-16T04:54:21.303Z,63.14
2023-02-16T04:57:24.376Z,63.19
2023-02-16T05:00:26.486Z,62.96
2023-02-16T05:03:28.371Z,63.08
2023-02-16T05:06:30.189Z,63.00
2023-02-16T05:09:31.971Z,63.15
2023-02-16T05:12:52.407Z,63.31
2023-02-16T05:15:54.475Z,63.20
2023-02-16T05:18:58.628Z,63.11
2023-02-16T05:22:00.719Z,63.31
2023-02-16T05:25:02.679Z,63.18
2023-02-16T05:28:05.127Z,63.22
2023-02-16T05:31:07.411Z,63.52
2023-02-16T05:34:09.677Z,63.47
2023-02-16T05:37:13.109Z,63.32
2023-02-16T05:40:14.949Z,63.30
2023-02-16T05:43:16.879Z,63.50
2023-02-16T05:46:19.790Z,63.33
2023-02-16T05:49:21.771Z,63.41
2023-02-16T05:52:23.683Z,63.58
2023-02-16T05:55:25.895Z,63.74
2023-02-16T05:58:27.697Z,63.67
2023-02-16T06:01:29.521Z,63.58
2023-02-16T06:04:31.974Z,63.59
2023-02-16T06:07:33.796Z,63.78
2023-02-16T06:10:35.752Z,63.66
2023-02-16T06:13:37.590Z,63.81
2023-02-16T06:16:42.044Z,63.73
2023-02-16T06:19:43.874Z,63.95
2023-02-16T06:22:45.763Z,63.82
2023-02-16T06:25:50.748Z,63.77
2023-02-16T06:28:53.266Z,63.78
2023-02-16T06:31:55.388Z,63.98
2023-02-16T06:34:57.324Z,63.93
2023-02-16T06:37:59.265Z,63.89
2023-02-16T06:41:01.605Z,64.06
2023-02-16T06:44:09.144Z,64.03
2023-02-16T06:47:11.232Z,64.14
2023-02-16T06:50:13.851Z,64.13
2023-02-16T06:53:15.674Z,64.05
2023-02-16T06:56:17.563Z,64.31
2023-02-16T06:59:19.583Z,64.23
2023-02-16T07:02:21.619Z,64.31
2023-02-16T07:05:24.329Z,64.30
2023-02-16T07:08:27.393Z,64.39
2023-02-16T07:11:29.404Z,64.25
2023-02-16T07:14:31.527Z,64.46
2023-02-16T07:17:33.421Z,64.67
2023-02-16T07:20:35.366Z,64.43
2023-02-16T07:23:37.301Z,64.55
2023-02-16T07:26:39.140Z,64.53
2023-02-16T07:29:41.037Z,64.53
2023-02-16T07:32:43.243Z,64.71
2023-02-16T07:35:44.951Z,64.44
2023-02-16T07:38:46.800Z,64.52
2023-02-16T07:41:48.715Z,64.71
2023-02-16T07:44:52.720Z,64.63
2023-02-16T07:47:54.576Z,64.49
2023-02-16T07:50:56.843Z,64.41
2023-02-16T07:53:59.375Z,64.40
2023-02-16T07:57:01.232Z,64.40
2023-02-16T08:00:03.933Z,64.38
2023-02-16T08:03:13.334Z,64.44
2023-02-16T08:06:16.313Z,64.45
2023-02-16T08:09:18.316Z,64.62
2023-02-16T08:12:21.271Z,64.57
2023-02-16T08:15:23.369Z,64.96
2023-02-16T08:18:25.293Z,64.48
2023-02-16T08:21:31.287Z,64.85
2023-02-16T08:24:34.090Z,64.78
2023-02-16T08:27:36.197Z,64.93
2023-02-16T08:30:38.112Z,64.82
2023-02-16T08:33:40.831Z,64.72
2023-02-16T08:36:45.330Z,64.82
2023-02-16T08:39:48.494Z,64.78
2023-02-16T08:42:50.683Z,64.61
2023-02-16T08:45:52.846Z,64.83
2023-02-16T08:48:59.113Z,65.00
2023-02-16T08:52:01.431Z,64.60
2023-02-16T08:55:04.054Z,64.28
2023-02-16T08:58:06.325Z,64.73
2023-02-16T09:01:08.678Z,64.58
2023-02-16T09:04:11.164Z,64.33
2023-02-16T09:07:13.180Z,64.66
2023-02-16T09:10:15.204Z,64.54
2023-02-16T09:13:17.157Z,64.44
2023-02-16T09:16:21.910Z,64.26
2023-02-16T09:19:24.184Z,64.25
2023-02-16T09:22:27.762Z,64.21
2023-02-16T09:25:29.794Z,63.81
2023-02-16T09:28:32.295Z,63.91
2023-02-16T09:31:36.550Z,63.48
2023-02-16T09:34:38.472Z,63.55
2023-02-16T09:37:40.485Z,63.44
2023-02-16T09:40:44.832Z,63.33
2023-02-16T09:44:28.565Z,63.21
2023-02-16T09:47:41.589Z,63.19
2023-02-16T09:50:55.036Z,62.99
2023-02-16T09:54:10.394Z,62.82
2023-02-16T09:57:15.384Z,62.66
2023-02-16T10:00:32.392Z,62.67
2023-02-16T10:03:54.549Z,62.57
2023-02-16T10:06:59.498Z,62.29
2023-02-16T10:10:04.498Z,62.40
2023-02-16T10:13:16.448Z,62.25
2023-02-16T10:16:27.725Z,62.07
2023-02-16T10:19:40.750Z,61.91
2023-02-16T10:23:00.752Z,61.90
2023-02-16T10:26:32.663Z,61.68
2023-02-16T10:29:35.050Z,61.52
2023-02-16T10:32:44.038Z,61.37
2023-02-16T10:35:56.948Z,61.17
2023-02-16T10:39:28.181Z,60.94
2023-02-16T10:43:22.287Z,60.68
2023-02-16T10:46:30.342Z,60.55
2023-02-16T10:49:35.112Z,60.62
2023-02-16T10:52:41.363Z,60.33
2023-02-16T10:55:43.692Z,60.29
2023-02-16T10:58:46.318Z,60.17
2023-02-16T11:01:50.588Z,59.92
2023-02-16T11:04:55.440Z,59.78
2023-02-16T11:08:02.278Z,59.70
2023-02-16T11:11:09.304Z,59.66
2023-02-16T11:14:29.749Z,59.30
2023-02-16T11:17:46.658Z,59.13
2023-02-16T11:20:54.339Z,58.87
2023-02-16T11:24:01.602Z,58.45
2023-02-16T11:27:19.454Z,58.57
2023-02-16T11:30:35.301Z,58.29
2023-02-16T11:33:38.287Z,58.12
2023-02-16T11:36:45.620Z,58.11
2023-02-16T11:39:54.612Z,58.10
2023-02-16T11:42:59.640Z,57.78
2023-02-16T11:46:07.514Z,57.39
2023-02-16T11:49:33.354Z,57.30
2023-02-16T11:52:35.774Z,57.18
2023-02-16T11:55:44.271Z,56.97
2023-02-16T11:59:13.976Z,57.18
2023-02-16T12:16:23.736Z,56.27
2023-02-16T12:19:43.416Z,56.07
2023-02-16T12:22:54.168Z,55.86
2023-02-16T12:26:03.052Z,55.84
2023-02-16T12:29:30.996Z,55.89
2023-02-16T12:32:44.324Z,55.68
2023-02-16T12:35:52.378Z,55.68
2023-02-16T12:39:05.405Z,55.78
2023-02-16T12:42:45.441Z,55.57
2023-02-16T12:45:49.009Z,55.70
2023-02-16T12:49:00.491Z,55.66
2023-02-16T12:52:21.654Z,55.70
2023-02-16T12:55:32.248Z,55.67
2023-02-16T12:58:44.661Z,55.39
2023-02-16T13:01:47.321Z,55.51
2023-02-16T13:04:49.017Z,55.46
2023-02-16T13:08:03.033Z,55.46
2023-02-16T13:11:11.357Z,55.51
2023-02-16T13:14:19.680Z,55.63
2023-02-16T13:17:32.520Z,55.42
2023-02-16T13:20:37.556Z,55.53
2023-02-16T13:24:23.909Z,55.52
2023-02-16T13:28:00.641Z,55.59
2023-02-16T13:31:34.063Z,55.62
2023-02-16T13:35:03.205Z,55.60
2023-02-16T13:38:32.566Z,55.57
2023-02-16T13:41:54.899Z,55.51
2023-02-16T13:45:00.576Z,55.61
2023-02-16T13:48:14.274Z,55.74
2023-02-16T13:51:24.683Z,55.83
2023-02-16T13:54:43.128Z,55.80
2023-02-16T13:57:50.782Z,55.85
2023-02-16T14:00:54.133Z,55.84
2023-02-16T14:03:56.283Z,55.87
2023-02-16T14:07:06.969Z,56.07
2023-02-16T14:10:13.789Z,56.06
2023-02-16T14:13:16.217Z,56.19
2023-02-16T14:16:18.031Z,56.07
2023-02-16T14:19:25.988Z,56.21
2023-02-16T14:22:37.285Z,56.40
2023-02-16T14:25:39.953Z,56.24
2023-02-16T14:29:11.837Z,56.38
2023-02-16T14:32:30.765Z,56.55
2023-02-16T14:35:38.264Z,56.57
2023-02-16T14:38:40.715Z,56.58
2023-02-16T14:41:42.898Z,56.53
2023-02-16T14:45:09.507Z,56.63
2023-02-16T14:48:22.934Z,56.77
2023-02-16T14:51:43.816Z,56.79
2023-02-16T14:55:23.528Z,56.97
2023-02-16T14:58:29.408Z,56.91
2023-02-16T15:01:42.947Z,56.96
2023-02-16T15:04:45.569Z,57.16
2023-02-16T15:07:51.079Z,57.02
2023-02-16T15:10:57.793Z,57.04
2023-02-16T15:14:10.480Z,57.06
2023-02-16T15:17:29.852Z,57.27
2023-02-16T15:20:37.955Z,57.33
2023-02-16T15:23:48.546Z,57.31
2023-02-16T15:26:56.268Z,57.38
2023-02-16T15:30:06.232Z,57.43
2023-02-16T15:33:29.953Z,57.46
2023-02-16T15:36:37.800Z,57.69
2023-02-16T15:39:51.907Z,57.62
2023-02-16T15:43:39.329Z,57.76
2023-02-16T15:46:43.778Z,57.80
2023-02-16T15:49:46.076Z,57.83
2023-02-16T15:52:48.020Z,57.91
2023-02-16T15:55:50.950Z,57.98
2023-02-16T15:58:53.740Z,58.15
2023-02-16T16:02:33.188Z,58.19
2023-02-16T16:05:36.271Z,58.24
2023-02-16T16:08:38.549Z,58.18
2023-02-16T16:11:40.376Z,58.46
2023-02-16T16:14:53.739Z,58.30
2023-02-16T16:17:59.230Z,58.29
2023-02-16T16:21:02.400Z,58.43
2023-02-16T16:24:11.650Z,58.43
2023-02-16T16:27:14.683Z,58.53
2023-02-16T16:30:20.369Z,58.73
2023-02-16T16:33:22.512Z,58.75
2023-02-16T16:36:33.925Z,58.65
2023-02-16T16:39:39.138Z,58.56
2023-02-16T16:43:02.429Z,58.77
2023-02-16T16:46:25.528Z,58.73
2023-02-16T16:49:28.122Z,58.81
2023-02-16T16:52:48.885Z,58.88
2023-02-16T16:55:51.290Z,58.96
2023-02-16T16:58:56.321Z,58.99
2023-02-16T17:01:58.454Z,59.15
2023-02-16T17:05:00.882Z,59.10
2023-02-16T17:08:03.272Z,59.19
2023-02-16T17:11:06.309Z,59.13
2023-02-16T17:14:14.085Z,59.24
2023-02-16T17:17:16.475Z,59.18
2023-02-16T17:20:18.557Z,59.42
2023-02-16T17:23:22.238Z,59.34
2023-02-16T17:26:24.516Z,59.53
2023-02-16T17:29:26.807Z,59.39
2023-02-16T17:32:28.889Z,59.62
2023-02-16T17:35:31.176Z,59.64
2023-02-16T17:38:33.371Z,59.54
2023-02-16T17:41:35.342Z,59.78
2023-02-16T17:44:37.177Z,59.82
2023-02-16T17:47:39.057Z,60.09
2023-02-16T17:50:41.104Z,59.90
2023-02-16T17:53:43.873Z,60.00
2023-02-16T17:56:46.583Z,60.02
2023-02-16T17:59:48.938Z,60.09
2023-02-16T18:02:50.670Z,60.07
2023-02-16T18:05:53.262Z,60.23
2023-02-16T18:08:55.228Z,60.20
2023-02-16T18:11:57.386Z,60.41
2023-02-16T18:14:59.255Z,60.42
2023-02-16T18:18:01.268Z,60.49
2023-02-16T18:21:03.437Z,60.44
2023-02-16T18:24:05.520Z,60.55
2023-02-16T18:27:07.552Z,60.51
2023-02-16T18:30:12.908Z,60.47
2023-02-16T18:33:15.406Z,60.52
2023-02-16T18:36:17.312Z,60.63
2023-02-16T18:39:19.148Z,60.47
2023-02-16T18:42:21.122Z,60.67
2023-02-16T18:45:23.871Z,60.79
2023-02-16T18:48:25.835Z,60.66
2023-02-16T18:51:31.209Z,60.80
2023-02-16T18:54:33.841Z,60.70
2023-02-16T18:57:35.836Z,60.67
2023-02-16T19:00:37.987Z,60.67
2023-02-16T19:03:40.767Z,60.78
2023-02-16T19:06:43.710Z,60.82
2023-02-16T19:09:46.396Z,60.90
2023-02-16T19:12:49.052Z,60.84
2023-02-16T19:15:51.497Z,60.83
2023-02-16T19:18:54.405Z,60.96
2023-02-16T19:21:56.761Z,61.00
2023-02-16T19:24:59.694Z,60.99
2023-02-16T19:28:02.436Z,60.90
2023-02-16T19:31:14.894Z,61.12
2023-02-16T19:34:17.549Z,61.03
2023-02-16T19:37:24.195Z,61.27
2023-02-16T19:40:26.677Z,61.16
2023-02-16T19:43:29.707Z,61.13
2023-02-16T19:46:34.680Z,61.08
2023-02-16T19:49:37.787Z,61.17
2023-02-16T19:52:41.116Z,61.17
2023-02-16T19:55:45.797Z,60.96
2023-02-16T19:58:49.504Z,61.20
2023-02-16T20:01:52.689Z,61.32
2023-02-16T20:04:55.914Z,61.45
2023-02-16T20:07:58.629Z,61.36
2023-02-16T20:11:04.177Z,61.50
2023-02-16T20:14:07.553Z,61.17
2023-02-16T20:17:10.456Z,61.15
2023-02-16T20:20:13.942Z,61.34
2023-02-16T20:23:16.978Z,61.23
2023-02-16T20:26:24.225Z,61.11
2023-02-16T20:29:27.234Z,61.19
2023-02-16T20:32:30.042Z,61.29
2023-02-16T20:35:35.951Z,61.28
2023-02-16T20:38:38.852Z,61.19
2023-02-16T20:41:41.791Z,61.23
2023-02-16T20:44:44.481Z,61.41
2023-02-16T20:47:46.871Z,61.20
2023-02-16T20:50:57.167Z,61.36
2023-02-16T20:54:01.464Z,61.23
2023-02-16T20:57:05.149Z,61.33
2023-02-16T21:00:13.564Z,61.50
2023-02-16T21:03:15.954Z,61.48
2023-02-16T21:06:18.784Z,61.30
2023-02-16T21:09:20.716Z,61.51
2023-02-16T21:12:22.681Z,61.31
2023-02-16T21:15:24.517Z,61.32
2023-02-16T21:18:26.387Z,61.39
2023-02-16T21:21:28.312Z,61.35
2023-02-16T21:24:30.166Z,61.41
2023-02-16T21:27:31.990Z,61.45
2023-02-16T21:30:33.934Z,61.47
2023-02-16T21:33:36.216Z,61.46
2023-02-16T21:36:38.204Z,61.25
2023-02-16T21:39:58.598Z,61.29
2023-02-16T21:43:00.475Z,61.50
2023-02-16T21:46:02.473Z,61.57
2023-02-16T21:49:06.812Z,61.61
2023-02-16T21:52:08.733Z,61.48
2023-02-16T21:55:30.773Z,61.56
2023-02-16T21:58:33.726Z,61.53
2023-02-16T22:01:39.047Z,61.53
2023-02-16T22:04:42.092Z,61.57
2023-02-16T22:07:43.989Z,61.70
2023-02-16T22:10:45.797Z,61.72
2023-02-16T22:13:53.063Z,61.87
2023-02-16T22:16:55.025Z,61.51
2023-02-16T22:19:56.787Z,61.82
2023-02-16T22:22:58.650Z,61.74
2023-02-16T22:26:01.032Z,61.73
2023-02-16T22:29:04.908Z,61.87
2023-02-16T22:32:06.897Z,61.91
2023-02-16T22:35:08.785Z,61.71
2023-02-16T22:38:10.587Z,61.79
2023-02-16T22:41:12.523Z,62.14
2023-02-16T22:44:15.052Z,61.88
2023-02-16T22:47:17.063Z,62.04
2023-02-16T22:50:18.989Z,62.11
2023-02-16T22:53:20.812Z,61.94
2023-02-16T22:56:22.610Z,62.16
2023-02-16T22:59:24.476Z,62.05
2023-02-16T23:02:26.324Z,62.12
2023-02-16T23:05:29.802Z,61.97
2023-02-16T23:08:31.625Z,62.08
2023-02-16T23:11:35.061Z,61.99
2023-02-16T23:14:37.849Z,62.05
2023-02-16T23:17:39.662Z,61.97
2023-02-16T23:20:41.490Z,61.94
2023-02-16T23:23:44.236Z,61.82
2023-02-16T23:26:46.694Z,61.95
2023-02-16T23:29:48.591Z,62.21
2023-02-16T23:32:50.785Z,62.09
2023-02-16T23:35:53.475Z,62.20
2023-02-16T23:38:59.469Z,62.26
2023-02-16T23:42:01.285Z,62.35
2023-02-16T23:45:03.807Z,62.16
2023-02-16T23:48:05.684Z,62.46
2023-02-16T23:51:07.555Z,62.53
2023-02-16T23:54:10.799Z,62.54
2023-02-16T23:57:12.651Z,62.35
